Página principal
METAR-TAF:

METAR-TAF

Aeroportos :

Phrae, Tailândia

latitude: 18-10N, longitude: 100-10E, altura: 161 m

Observação actual do tempo

O boletim foi feito há 57 minutos, às 05:00 UTC
Vento 3 kt de sul, variando entre este e oeste
Temperatura 34°C
Humidade 47%
Pressão 1013 hPa
Visibilidade: 3000 m
bruma

METAR: VTCP 230500Z 17003KT 090V260 3000 HZ NSC 34/21 Q1013 NOSIG

Hora: 12:57 (05:57 UTC)

Previsão

O boletim foi feito há 57 minutos, às 05:00 UTC
Previsão válida de 23 às 06 UTC a 24 às 06 UTC
Vento 5 kt de su-sudoeste
Visibilidade: 6000 m
Tornando-se
de 24 às 00 UTC a 24 às 02 UTC
Visibilidade: 1500 m
neblina
Tornando-se
de 24 às 04 UTC a 24 às 06 UTC
Visibilidade: 7000 m

TAF: VTCP 230500Z 2306/2406 20005KT 6000 NSC BECMG 2400/2402 1500 BR BECMG 2404/2406 7000 NSW

Observações e previsões do tempo de mais de 4000 aeroportos (mensagens METAR e TAF).

As estações disponíveis são os pontos amarelos e vermelhos sobre o mapa.

Mova o rato sobre o mapa para ver o nome da estação.

Depois clique no ponto para visualizar as observações e previsões meteorológicas.

Para alterar o mapa : clique nos botões verdes com uma cruz preta para aumentar o zoom; no botão verde com uma pitada de zoom; ou nas setas verdes para mapas adjacentes.


METAR-TAF: